Vernon Hills, Illinois
Current Conditions -  °F | °C
As of 2:52 PM on Thursday 27 Nov 2014 (Local Time) from KPWK Reporting Station
Light Snow Light Snow  
Wind Chill: 11°   Ceiling: 3100
Heat Index: 22°   Visibility: 9mi
Dew Point: 13°   Wind: 10mph
Humidity: 68%   Direction: 330°NNW
Pressure: 30.38"   Gusts: NA
Location:  42.22°N, 87.97°W
Report Text: KPWK 272052Z AUTO 33009KT 9SM -SN OVC031 M06/M11 A3038 RMK AO2 SNB50 SLP297 P0000 60000 T10561106 51008
Loading
Personal Weather Stations






























Interactive Weather Map New forecast layout! Learn more

10-Day Weather Forecast

Advertisements
Track Severe Weather on mobile